sensor_id;sensor_type;location;lat;lon;timestamp;P1;durP1;ratioP1;P2;durP2;ratioP2
77158;SDS011;66129;45.890;13.714;2024-02-16T00:00:06;29.23;;;16.35;;
77158;SDS011;66129;45.890;13.714;2024-02-16T00:02:32;30.55;;;16.42;;
77158;SDS011;66129;45.890;13.714;2024-02-16T00:04:58;28.80;;;16.30;;
77158;SDS011;66129;45.890;13.714;2024-02-16T00:07:24;28.35;;;14.93;;
77158;SDS011;66129;45.890;13.714;2024-02-16T00:09:49;28.58;;;16.02;;
77158;SDS011;66129;45.890;13.714;2024-02-16T00:12:15;25.08;;;14.68;;
77158;SDS011;66129;45.890;13.714;2024-02-16T00:14:41;28.40;;;14.70;;
77158;SDS011;66129;45.890;13.714;2024-02-16T00:17:07;26.83;;;15.13;;
77158;SDS011;66129;45.890;13.714;2024-02-16T00:19:35;27.80;;;14.60;;
77158;SDS011;66129;45.890;13.714;2024-02-16T00:22:01;26.50;;;13.77;;
77158;SDS011;66129;45.890;13.714;2024-02-16T00:24:26;31.92;;;16.27;;
77158;SDS011;66129;45.890;13.714;2024-02-16T00:26:52;32.38;;;16.83;;
77158;SDS011;66129;45.890;13.714;2024-02-16T00:29:17;47.85;;;23.73;;
77158;SDS011;66129;45.890;13.714;2024-02-16T00:31:44;39.03;;;19.75;;
77158;SDS011;66129;45.890;13.714;2024-02-16T00:34:09;32.97;;;16.45;;
77158;SDS011;66129;45.890;13.714;2024-02-16T00:36:35;29.83;;;16.45;;
77158;SDS011;66129;45.890;13.714;2024-02-16T00:39:01;79.78;;;34.10;;
77158;SDS011;66129;45.890;13.714;2024-02-16T00:41:28;60.40;;;27.90;;
77158;SDS011;66129;45.890;13.714;2024-02-16T00:43:54;41.38;;;21.73;;
77158;SDS011;66129;45.890;13.714;2024-02-16T00:46:21;40.60;;;20.42;;
77158;SDS011;66129;45.890;13.714;2024-02-16T00:48:48;30.23;;;16.02;;
77158;SDS011;66129;45.890;13.714;2024-02-16T00:51:14;29.05;;;15.48;;
77158;SDS011;66129;45.890;13.714;2024-02-16T00:53:39;27.38;;;14.85;;
77158;SDS011;66129;45.890;13.714;2024-02-16T00:56:05;26.65;;;15.45;;
77158;SDS011;66129;45.890;13.714;2024-02-16T00:58:32;27.27;;;15.88;;
77158;SDS011;66129;45.890;13.714;2024-02-16T01:00:57;31.63;;;15.68;;
77158;SDS011;66129;45.890;13.714;2024-02-16T01:03:23;28.08;;;14.93;;
77158;SDS011;66129;45.890;13.714;2024-02-16T01:05:51;29.30;;;15.38;;
77158;SDS011;66129;45.890;13.714;2024-02-16T01:08:17;31.25;;;15.30;;
77158;SDS011;66129;45.890;13.714;2024-02-16T01:10:43;34.08;;;16.27;;
77158;SDS011;66129;45.890;13.714;2024-02-16T01:13:08;33.35;;;17.15;;
77158;SDS011;66129;45.890;13.714;2024-02-16T01:15:35;33.70;;;17.98;;
77158;SDS011;66129;45.890;13.714;2024-02-16T01:18:02;32.20;;;17.88;;
77158;SDS011;66129;45.890;13.714;2024-02-16T01:20:28;28.92;;;14.63;;
77158;SDS011;66129;45.890;13.714;2024-02-16T01:22:56;22.95;;;13.75;;
77158;SDS011;66129;45.890;13.714;2024-02-16T01:25:21;29.65;;;15.57;;
77158;SDS011;66129;45.890;13.714;2024-02-16T01:27:47;26.98;;;15.00;;
77158;SDS011;66129;45.890;13.714;2024-02-16T01:30:12;31.58;;;16.90;;
77158;SDS011;66129;45.890;13.714;2024-02-16T01:32:39;29.40;;;16.60;;
77158;SDS011;66129;45.890;13.714;2024-02-16T01:35:05;31.88;;;17.02;;
77158;SDS011;66129;45.890;13.714;2024-02-16T01:37:31;35.05;;;17.27;;
77158;SDS011;66129;45.890;13.714;2024-02-16T01:39:57;29.17;;;15.85;;
77158;SDS011;66129;45.890;13.714;2024-02-16T01:42:22;39.30;;;18.42;;
77158;SDS011;66129;45.890;13.714;2024-02-16T01:44:48;39.40;;;20.48;;
77158;SDS011;66129;45.890;13.714;2024-02-16T01:47:13;34.35;;;17.35;;
77158;SDS011;66129;45.890;13.714;2024-02-16T01:49:40;33.67;;;17.17;;
77158;SDS011;66129;45.890;13.714;2024-02-16T01:52:06;34.80;;;17.40;;
77158;SDS011;66129;45.890;13.714;2024-02-16T01:54:32;36.33;;;16.85;;
77158;SDS011;66129;45.890;13.714;2024-02-16T01:56:58;29.08;;;15.95;;
77158;SDS011;66129;45.890;13.714;2024-02-16T01:59:26;26.60;;;15.80;;
77158;SDS011;66129;45.890;13.714;2024-02-16T02:01:51;29.98;;;16.15;;
77158;SDS011;66129;45.890;13.714;2024-02-16T02:04:17;33.63;;;16.27;;
77158;SDS011;66129;45.890;13.714;2024-02-16T02:06:43;31.98;;;14.70;;
77158;SDS011;66129;45.890;13.714;2024-02-16T02:09:08;33.33;;;16.58;;
77158;SDS011;66129;45.890;13.714;2024-02-16T02:11:34;28.88;;;16.25;;
77158;SDS011;66129;45.890;13.714;2024-02-16T02:14:00;28.77;;;15.98;;
77158;SDS011;66129;45.890;13.714;2024-02-16T02:16:25;26.58;;;14.07;;
77158;SDS011;66129;45.890;13.714;2024-02-16T02:18:51;26.38;;;15.35;;
77158;SDS011;66129;45.890;13.714;2024-02-16T02:21:17;25.02;;;14.95;;
77158;SDS011;66129;45.890;13.714;2024-02-16T02:23:43;30.02;;;17.38;;
77158;SDS011;66129;45.890;13.714;2024-02-16T02:26:08;26.55;;;15.43;;
77158;SDS011;66129;45.890;13.714;2024-02-16T02:28:34;27.60;;;14.80;;
77158;SDS011;66129;45.890;13.714;2024-02-16T02:31:00;27.30;;;15.32;;
77158;SDS011;66129;45.890;13.714;2024-02-16T02:33:25;29.40;;;15.98;;
77158;SDS011;66129;45.890;13.714;2024-02-16T02:35:51;26.95;;;15.45;;
77158;SDS011;66129;45.890;13.714;2024-02-16T02:38:17;27.45;;;15.07;;
77158;SDS011;66129;45.890;13.714;2024-02-16T02:40:42;28.67;;;15.93;;
77158;SDS011;66129;45.890;13.714;2024-02-16T02:43:08;28.42;;;15.13;;
77158;SDS011;66129;45.890;13.714;2024-02-16T02:45:33;30.02;;;16.00;;
77158;SDS011;66129;45.890;13.714;2024-02-16T02:47:59;28.35;;;15.52;;
77158;SDS011;66129;45.890;13.714;2024-02-16T02:50:25;26.65;;;14.52;;
77158;SDS011;66129;45.890;13.714;2024-02-16T02:52:51;27.95;;;14.07;;
77158;SDS011;66129;45.890;13.714;2024-02-16T02:55:17;23.95;;;13.38;;
77158;SDS011;66129;45.890;13.714;2024-02-16T02:57:42;25.08;;;14.18;;
77158;SDS011;66129;45.890;13.714;2024-02-16T03:00:08;29.67;;;15.82;;
77158;SDS011;66129;45.890;13.714;2024-02-16T03:02:39;29.45;;;15.82;;
77158;SDS011;66129;45.890;13.714;2024-02-16T03:05:05;21.98;;;12.32;;
77158;SDS011;66129;45.890;13.714;2024-02-16T03:07:34;24.05;;;13.75;;
77158;SDS011;66129;45.890;13.714;2024-02-16T03:10:00;24.15;;;13.65;;
77158;SDS011;66129;45.890;13.714;2024-02-16T03:12:27;23.13;;;14.20;;
77158;SDS011;66129;45.890;13.714;2024-02-16T03:14:52;22.55;;;13.60;;
77158;SDS011;66129;45.890;13.714;2024-02-16T03:17:18;32.22;;;14.05;;
77158;SDS011;66129;45.890;13.714;2024-02-16T03:19:44;24.38;;;14.02;;
77158;SDS011;66129;45.890;13.714;2024-02-16T03:22:10;22.13;;;14.45;;
77158;SDS011;66129;45.890;13.714;2024-02-16T03:24:35;24.20;;;14.00;;
77158;SDS011;66129;45.890;13.714;2024-02-16T03:27:01;24.67;;;13.40;;
77158;SDS011;66129;45.890;13.714;2024-02-16T03:29:27;24.13;;;14.45;;
77158;SDS011;66129;45.890;13.714;2024-02-16T03:31:52;22.38;;;12.60;;
77158;SDS011;66129;45.890;13.714;2024-02-16T03:34:18;25.75;;;13.98;;
77158;SDS011;66129;45.890;13.714;2024-02-16T03:36:43;26.50;;;13.88;;
77158;SDS011;66129;45.890;13.714;2024-02-16T03:39:09;22.35;;;13.15;;
77158;SDS011;66129;45.890;13.714;2024-02-16T03:41:35;23.85;;;14.07;;
77158;SDS011;66129;45.890;13.714;2024-02-16T03:44:00;26.63;;;14.13;;
77158;SDS011;66129;45.890;13.714;2024-02-16T03:46:26;29.60;;;14.32;;
77158;SDS011;66129;45.890;13.714;2024-02-16T03:48:52;30.60;;;13.55;;
77158;SDS011;66129;45.890;13.714;2024-02-16T03:51:17;21.30;;;12.45;;
77158;SDS011;66129;45.890;13.714;2024-02-16T03:53:43;23.58;;;12.70;;
77158;SDS011;66129;45.890;13.714;2024-02-16T03:56:11;24.15;;;13.20;;
77158;SDS011;66129;45.890;13.714;2024-02-16T03:58:37;28.77;;;15.02;;
77158;SDS011;66129;45.890;13.714;2024-02-16T04:01:03;27.90;;;13.13;;
77158;SDS011;66129;45.890;13.714;2024-02-16T04:03:32;28.27;;;12.95;;
77158;SDS011;66129;45.890;13.714;2024-02-16T04:05:58;24.45;;;13.48;;
77158;SDS011;66129;45.890;13.714;2024-02-16T04:08:24;32.50;;;12.95;;
77158;SDS011;66129;45.890;13.714;2024-02-16T04:10:50;24.85;;;12.68;;
77158;SDS011;66129;45.890;13.714;2024-02-16T04:13:16;21.50;;;13.00;;
77158;SDS011;66129;45.890;13.714;2024-02-16T04:15:41;25.10;;;13.10;;
77158;SDS011;66129;45.890;13.714;2024-02-16T04:18:07;22.45;;;12.43;;
77158;SDS011;66129;45.890;13.714;2024-02-16T04:20:32;28.40;;;12.70;;
77158;SDS011;66129;45.890;13.714;2024-02-16T04:22:58;25.02;;;12.68;;
77158;SDS011;66129;45.890;13.714;2024-02-16T04:25:23;22.65;;;11.60;;
77158;SDS011;66129;45.890;13.714;2024-02-16T04:27:49;20.65;;;12.30;;
77158;SDS011;66129;45.890;13.714;2024-02-16T04:30:14;19.27;;;10.85;;
77158;SDS011;66129;45.890;13.714;2024-02-16T04:32:40;24.25;;;13.02;;
77158;SDS011;66129;45.890;13.714;2024-02-16T04:35:05;21.42;;;12.82;;
77158;SDS011;66129;45.890;13.714;2024-02-16T04:37:31;21.98;;;11.88;;
77158;SDS011;66129;45.890;13.714;2024-02-16T04:39:56;26.00;;;13.02;;
77158;SDS011;66129;45.890;13.714;2024-02-16T04:42:22;24.33;;;13.63;;
77158;SDS011;66129;45.890;13.714;2024-02-16T04:44:47;27.25;;;14.32;;
77158;SDS011;66129;45.890;13.714;2024-02-16T04:47:13;24.45;;;13.32;;
77158;SDS011;66129;45.890;13.714;2024-02-16T04:49:39;33.88;;;15.95;;
77158;SDS011;66129;45.890;13.714;2024-02-16T04:52:04;30.17;;;15.18;;
77158;SDS011;66129;45.890;13.714;2024-02-16T04:54:30;30.77;;;15.38;;
77158;SDS011;66129;45.890;13.714;2024-02-16T04:56:55;25.52;;;14.38;;
77158;SDS011;66129;45.890;13.714;2024-02-16T04:59:21;29.15;;;14.68;;
77158;SDS011;66129;45.890;13.714;2024-02-16T05:01:46;26.25;;;14.13;;
77158;SDS011;66129;45.890;13.714;2024-02-16T05:04:12;26.35;;;14.93;;
77158;SDS011;66129;45.890;13.714;2024-02-16T05:06:41;21.52;;;11.88;;
77158;SDS011;66129;45.890;13.714;2024-02-16T05:09:07;26.88;;;14.75;;
77158;SDS011;66129;45.890;13.714;2024-02-16T05:11:33;26.02;;;14.48;;
77158;SDS011;66129;45.890;13.714;2024-02-16T05:13:59;27.23;;;13.23;;
77158;SDS011;66129;45.890;13.714;2024-02-16T05:16:25;22.77;;;12.80;;
77158;SDS011;66129;45.890;13.714;2024-02-16T05:18:51;22.58;;;14.55;;
77158;SDS011;66129;45.890;13.714;2024-02-16T05:21:17;29.45;;;15.32;;
77158;SDS011;66129;45.890;13.714;2024-02-16T05:23:42;26.20;;;15.70;;
77158;SDS011;66129;45.890;13.714;2024-02-16T05:26:08;35.53;;;15.80;;
77158;SDS011;66129;45.890;13.714;2024-02-16T05:28:33;28.85;;;14.50;;
77158;SDS011;66129;45.890;13.714;2024-02-16T05:31:21;25.10;;;14.40;;
77158;SDS011;66129;45.890;13.714;2024-02-16T05:33:49;32.40;;;17.10;;
77158;SDS011;66129;45.890;13.714;2024-02-16T05:36:19;32.42;;;15.77;;
77158;SDS011;66129;45.890;13.714;2024-02-16T05:38:48;25.95;;;13.40;;
77158;SDS011;66129;45.890;13.714;2024-02-16T05:41:15;27.35;;;15.05;;
77158;SDS011;66129;45.890;13.714;2024-02-16T05:43:42;33.55;;;19.70;;
77158;SDS011;66129;45.890;13.714;2024-02-16T05:46:12;40.63;;;21.52;;
77158;SDS011;66129;45.890;13.714;2024-02-16T05:48:42;35.10;;;18.35;;
77158;SDS011;66129;45.890;13.714;2024-02-16T05:51:07;32.25;;;17.67;;
77158;SDS011;66129;45.890;13.714;2024-02-16T05:53:33;33.47;;;18.38;;
77158;SDS011;66129;45.890;13.714;2024-02-16T05:56:00;24.40;;;13.35;;
77158;SDS011;66129;45.890;13.714;2024-02-16T05:58:25;19.40;;;12.20;;
77158;SDS011;66129;45.890;13.714;2024-02-16T06:00:51;21.60;;;13.02;;
77158;SDS011;66129;45.890;13.714;2024-02-16T06:03:17;26.38;;;13.20;;
77158;SDS011;66129;45.890;13.714;2024-02-16T06:05:42;24.10;;;13.82;;
77158;SDS011;66129;45.890;13.714;2024-02-16T06:08:11;34.63;;;18.02;;
77158;SDS011;66129;45.890;13.714;2024-02-16T06:10:37;24.52;;;14.43;;
77158;SDS011;66129;45.890;13.714;2024-02-16T06:13:03;26.05;;;14.73;;
77158;SDS011;66129;45.890;13.714;2024-02-16T06:15:28;23.73;;;13.68;;
77158;SDS011;66129;45.890;13.714;2024-02-16T06:17:54;24.58;;;14.18;;
77158;SDS011;66129;45.890;13.714;2024-02-16T06:20:20;25.40;;;13.15;;
77158;SDS011;66129;45.890;13.714;2024-02-16T06:22:46;26.58;;;15.00;;
77158;SDS011;66129;45.890;13.714;2024-02-16T06:25:12;31.02;;;15.25;;
77158;SDS011;66129;45.890;13.714;2024-02-16T06:27:39;58.88;;;29.60;;
77158;SDS011;66129;45.890;13.714;2024-02-16T06:30:04;50.90;;;26.60;;
77158;SDS011;66129;45.890;13.714;2024-02-16T06:32:32;42.45;;;22.45;;
77158;SDS011;66129;45.890;13.714;2024-02-16T06:34:58;49.72;;;23.77;;
77158;SDS011;66129;45.890;13.714;2024-02-16T06:37:23;45.35;;;22.35;;
77158;SDS011;66129;45.890;13.714;2024-02-16T06:39:49;37.80;;;19.83;;
77158;SDS011;66129;45.890;13.714;2024-02-16T06:42:15;47.10;;;23.42;;
77158;SDS011;66129;45.890;13.714;2024-02-16T06:44:41;37.65;;;18.80;;
77158;SDS011;66129;45.890;13.714;2024-02-16T06:47:06;38.78;;;20.13;;
77158;SDS011;66129;45.890;13.714;2024-02-16T06:49:32;45.65;;;22.20;;
77158;SDS011;66129;45.890;13.714;2024-02-16T06:51:57;41.28;;;23.45;;
77158;SDS011;66129;45.890;13.714;2024-02-16T06:54:22;48.40;;;24.58;;
77158;SDS011;66129;45.890;13.714;2024-02-16T06:56:49;34.63;;;20.02;;
77158;SDS011;66129;45.890;13.714;2024-02-16T06:59:16;47.08;;;26.30;;
77158;SDS011;66129;45.890;13.714;2024-02-16T07:01:42;42.70;;;21.30;;
77158;SDS011;66129;45.890;13.714;2024-02-16T07:04:07;41.45;;;22.02;;
77158;SDS011;66129;45.890;13.714;2024-02-16T07:06:34;37.15;;;19.42;;
77158;SDS011;66129;45.890;13.714;2024-02-16T07:09:00;33.33;;;19.50;;
77158;SDS011;66129;45.890;13.714;2024-02-16T07:11:25;29.42;;;16.10;;
77158;SDS011;66129;45.890;13.714;2024-02-16T07:13:51;24.08;;;13.88;;
77158;SDS011;66129;45.890;13.714;2024-02-16T07:16:16;22.50;;;12.30;;
77158;SDS011;66129;45.890;13.714;2024-02-16T07:18:43;26.40;;;14.40;;
77158;SDS011;66129;45.890;13.714;2024-02-16T07:21:09;26.83;;;15.88;;
77158;SDS011;66129;45.890;13.714;2024-02-16T07:23:35;25.58;;;14.38;;
77158;SDS011;66129;45.890;13.714;2024-02-16T07:26:00;21.88;;;12.88;;
77158;SDS011;66129;45.890;13.714;2024-02-16T07:28:27;18.40;;;11.57;;
77158;SDS011;66129;45.890;13.714;2024-02-16T07:30:52;21.90;;;14.02;;
77158;SDS011;66129;45.890;13.714;2024-02-16T07:33:18;23.42;;;13.13;;
77158;SDS011;66129;45.890;13.714;2024-02-16T07:35:44;20.90;;;12.35;;
77158;SDS011;66129;45.890;13.714;2024-02-16T07:38:10;19.77;;;10.45;;
77158;SDS011;66129;45.890;13.714;2024-02-16T07:40:36;15.57;;;9.93;;
77158;SDS011;66129;45.890;13.714;2024-02-16T07:43:01;16.42;;;8.55;;
77158;SDS011;66129;45.890;13.714;2024-02-16T07:45:28;11.38;;;7.20;;
77158;SDS011;66129;45.890;13.714;2024-02-16T07:47:53;13.88;;;8.52;;
77158;SDS011;66129;45.890;13.714;2024-02-16T07:50:22;17.90;;;8.45;;
77158;SDS011;66129;45.890;13.714;2024-02-16T07:52:48;15.52;;;9.73;;
77158;SDS011;66129;45.890;13.714;2024-02-16T07:55:14;18.85;;;9.45;;
77158;SDS011;66129;45.890;13.714;2024-02-16T07:57:43;14.27;;;9.07;;
77158;SDS011;66129;45.890;13.714;2024-02-16T08:00:09;12.95;;;7.78;;
77158;SDS011;66129;45.890;13.714;2024-02-16T08:02:36;13.82;;;8.38;;
77158;SDS011;66129;45.890;13.714;2024-02-16T08:05:01;13.32;;;8.15;;
77158;SDS011;66129;45.890;13.714;2024-02-16T08:07:27;13.43;;;7.95;;
77158;SDS011;66129;45.890;13.714;2024-02-16T08:09:53;14.73;;;9.00;;
77158;SDS011;66129;45.890;13.714;2024-02-16T08:12:19;12.55;;;8.48;;
77158;SDS011;66129;45.890;13.714;2024-02-16T08:14:44;17.48;;;8.20;;
77158;SDS011;66129;45.890;13.714;2024-02-16T08:17:13;17.73;;;8.63;;
77158;SDS011;66129;45.890;13.714;2024-02-16T08:19:38;12.93;;;6.78;;
77158;SDS011;66129;45.890;13.714;2024-02-16T08:22:06;14.95;;;8.15;;
77158;SDS011;66129;45.890;13.714;2024-02-16T08:24:35;14.13;;;8.25;;
77158;SDS011;66129;45.890;13.714;2024-02-16T08:27:01;17.75;;;10.32;;
77158;SDS011;66129;45.890;13.714;2024-02-16T08:29:27;11.82;;;7.32;;
77158;SDS011;66129;45.890;13.714;2024-02-16T08:31:54;14.65;;;7.75;;
77158;SDS011;66129;45.890;13.714;2024-02-16T08:34:20;11.90;;;7.30;;
77158;SDS011;66129;45.890;13.714;2024-02-16T08:36:49;12.65;;;8.40;;
77158;SDS011;66129;45.890;13.714;2024-02-16T08:39:15;13.35;;;8.32;;
77158;SDS011;66129;45.890;13.714;2024-02-16T08:41:42;12.27;;;7.50;;
77158;SDS011;66129;45.890;13.714;2024-02-16T08:44:13;12.32;;;8.27;;
77158;SDS011;66129;45.890;13.714;2024-02-16T08:46:39;12.50;;;7.28;;
77158;SDS011;66129;45.890;13.714;2024-02-16T08:49:05;12.85;;;8.73;;
77158;SDS011;66129;45.890;13.714;2024-02-16T08:51:31;11.25;;;7.13;;
77158;SDS011;66129;45.890;13.714;2024-02-16T08:53:57;14.20;;;8.73;;
77158;SDS011;66129;45.890;13.714;2024-02-16T08:56:23;11.55;;;7.25;;
77158;SDS011;66129;45.890;13.714;2024-02-16T08:58:48;11.02;;;7.15;;
77158;SDS011;66129;45.890;13.714;2024-02-16T09:01:14;12.65;;;7.25;;
77158;SDS011;66129;45.890;13.714;2024-02-16T09:03:41;14.10;;;7.10;;
77158;SDS011;66129;45.890;13.714;2024-02-16T09:06:07;15.93;;;7.78;;
77158;SDS011;66129;45.890;13.714;2024-02-16T09:08:32;12.15;;;7.57;;
77158;SDS011;66129;45.890;13.714;2024-02-16T09:11:03;10.05;;;6.80;;
77158;SDS011;66129;45.890;13.714;2024-02-16T09:13:36;10.68;;;6.47;;
77158;SDS011;66129;45.890;13.714;2024-02-16T09:16:04;11.18;;;6.85;;
77158;SDS011;66129;45.890;13.714;2024-02-16T09:18:30;12.65;;;7.63;;
77158;SDS011;66129;45.890;13.714;2024-02-16T09:20:55;9.32;;;5.35;;
77158;SDS011;66129;45.890;13.714;2024-02-16T09:23:21;8.70;;;5.45;;
77158;SDS011;66129;45.890;13.714;2024-02-16T09:25:46;9.63;;;5.38;;
77158;SDS011;66129;45.890;13.714;2024-02-16T09:28:13;8.98;;;5.57;;
77158;SDS011;66129;45.890;13.714;2024-02-16T09:30:39;10.05;;;6.07;;
77158;SDS011;66129;45.890;13.714;2024-02-16T09:33:04;9.95;;;6.05;;
77158;SDS011;66129;45.890;13.714;2024-02-16T09:35:30;11.13;;;6.40;;
77158;SDS011;66129;45.890;13.714;2024-02-16T09:37:56;10.82;;;6.32;;
77158;SDS011;66129;45.890;13.714;2024-02-16T09:40:22;10.77;;;6.78;;
77158;SDS011;66129;45.890;13.714;2024-02-16T09:42:48;14.57;;;10.07;;
77158;SDS011;66129;45.890;13.714;2024-02-16T09:45:15;10.18;;;6.75;;
77158;SDS011;66129;45.890;13.714;2024-02-16T09:47:46;15.95;;;8.07;;
77158;SDS011;66129;45.890;13.714;2024-02-16T09:50:12;9.25;;;6.68;;
77158;SDS011;66129;45.890;13.714;2024-02-16T09:52:38;10.35;;;6.97;;
77158;SDS011;66129;45.890;13.714;2024-02-16T09:55:05;10.30;;;5.70;;
77158;SDS011;66129;45.890;13.714;2024-02-16T09:57:35;10.35;;;6.50;;
77158;SDS011;66129;45.890;13.714;2024-02-16T10:00:01;10.43;;;5.63;;
77158;SDS011;66129;45.890;13.714;2024-02-16T10:02:38;8.23;;;5.68;;
77158;SDS011;66129;45.890;13.714;2024-02-16T10:05:14;20.58;;;9.65;;
77158;SDS011;66129;45.890;13.714;2024-02-16T10:07:41;19.17;;;8.90;;
77158;SDS011;66129;45.890;13.714;2024-02-16T10:10:20;16.17;;;7.88;;
77158;SDS011;66129;45.890;13.714;2024-02-16T10:12:49;11.18;;;6.95;;
77158;SDS011;66129;45.890;13.714;2024-02-16T10:15:21;8.15;;;4.50;;
77158;SDS011;66129;45.890;13.714;2024-02-16T10:20:25;7.97;;;4.72;;
77158;SDS011;66129;45.890;13.714;2024-02-16T10:23:01;10.93;;;6.82;;
77158;SDS011;66129;45.890;13.714;2024-02-16T10:25:28;10.07;;;6.05;;
77158;SDS011;66129;45.890;13.714;2024-02-16T10:27:53;9.00;;;5.55;;
77158;SDS011;66129;45.890;13.714;2024-02-16T10:30:20;11.15;;;6.22;;
77158;SDS011;66129;45.890;13.714;2024-02-16T10:32:47;10.23;;;6.40;;
77158;SDS011;66129;45.890;13.714;2024-02-16T10:35:13;7.18;;;4.57;;
77158;SDS011;66129;45.890;13.714;2024-02-16T10:37:40;8.80;;;3.97;;
77158;SDS011;66129;45.890;13.714;2024-02-16T10:40:05;5.80;;;3.53;;
77158;SDS011;66129;45.890;13.714;2024-02-16T10:42:36;7.53;;;3.90;;
77158;SDS011;66129;45.890;13.714;2024-02-16T10:45:02;5.80;;;4.32;;
77158;SDS011;66129;45.890;13.714;2024-02-16T10:47:29;6.28;;;3.53;;
77158;SDS011;66129;45.890;13.714;2024-02-16T10:49:54;6.07;;;3.80;;
77158;SDS011;66129;45.890;13.714;2024-02-16T10:52:20;6.40;;;3.25;;
77158;SDS011;66129;45.890;13.714;2024-02-16T10:54:46;6.13;;;4.25;;
77158;SDS011;66129;45.890;13.714;2024-02-16T10:57:12;7.18;;;3.92;;
77158;SDS011;66129;45.890;13.714;2024-02-16T10:59:41;6.50;;;3.60;;
77158;SDS011;66129;45.890;13.714;2024-02-16T11:02:10;5.88;;;3.75;;
77158;SDS011;66129;45.890;13.714;2024-02-16T11:04:37;9.85;;;3.92;;
77158;SDS011;66129;45.890;13.714;2024-02-16T11:07:10;7.15;;;4.25;;
77158;SDS011;66129;45.890;13.714;2024-02-16T11:09:38;6.20;;;3.78;;
77158;SDS011;66129;45.890;13.714;2024-02-16T11:12:05;5.45;;;3.50;;
77158;SDS011;66129;45.890;13.714;2024-02-16T11:14:43;6.78;;;3.88;;
77158;SDS011;66129;45.890;13.714;2024-02-16T11:17:11;7.00;;;3.70;;
77158;SDS011;66129;45.890;13.714;2024-02-16T11:19:45;9.45;;;3.90;;
77158;SDS011;66129;45.890;13.714;2024-02-16T11:22:14;5.75;;;3.80;;
77158;SDS011;66129;45.890;13.714;2024-02-16T11:24:44;7.35;;;3.85;;
77158;SDS011;66129;45.890;13.714;2024-02-16T11:27:19;6.72;;;3.63;;
77158;SDS011;66129;45.890;13.714;2024-02-16T11:29:45;8.35;;;4.18;;
77158;SDS011;66129;45.890;13.714;2024-02-16T11:32:11;8.05;;;4.30;;
77158;SDS011;66129;45.890;13.714;2024-02-16T11:34:37;7.25;;;4.13;;
77158;SDS011;66129;45.890;13.714;2024-02-16T11:37:05;8.77;;;4.78;;
77158;SDS011;66129;45.890;13.714;2024-02-16T11:39:31;10.35;;;4.07;;
77158;SDS011;66129;45.890;13.714;2024-02-16T11:44:29;7.32;;;4.22;;
77158;SDS011;66129;45.890;13.714;2024-02-16T11:46:58;8.18;;;4.53;;
77158;SDS011;66129;45.890;13.714;2024-02-16T11:49:25;7.22;;;4.55;;
77158;SDS011;66129;45.890;13.714;2024-02-16T11:51:50;7.85;;;4.35;;
77158;SDS011;66129;45.890;13.714;2024-02-16T11:54:16;6.75;;;4.47;;
77158;SDS011;66129;45.890;13.714;2024-02-16T11:56:43;11.05;;;5.82;;
77158;SDS011;66129;45.890;13.714;2024-02-16T11:59:15;8.68;;;4.95;;
77158;SDS011;66129;45.890;13.714;2024-02-16T12:01:50;9.55;;;5.07;;
77158;SDS011;66129;45.890;13.714;2024-02-16T12:04:24;7.60;;;4.75;;
77158;SDS011;66129;45.890;13.714;2024-02-16T12:06:50;11.52;;;5.47;;
77158;SDS011;66129;45.890;13.714;2024-02-16T12:09:26;10.13;;;4.80;;
77158;SDS011;66129;45.890;13.714;2024-02-16T12:11:52;10.68;;;4.72;;
77158;SDS011;66129;45.890;13.714;2024-02-16T12:14:21;11.52;;;5.45;;
77158;SDS011;66129;45.890;13.714;2024-02-16T12:16:51;10.98;;;5.82;;
77158;SDS011;66129;45.890;13.714;2024-02-16T12:19:20;8.70;;;5.32;;
77158;SDS011;66129;45.890;13.714;2024-02-16T12:21:53;9.95;;;6.00;;
77158;SDS011;66129;45.890;13.714;2024-02-16T12:24:22;7.93;;;5.22;;
77158;SDS011;66129;45.890;13.714;2024-02-16T12:26:48;9.20;;;5.93;;
77158;SDS011;66129;45.890;13.714;2024-02-16T12:29:13;9.32;;;5.10;;
77158;SDS011;66129;45.890;13.714;2024-02-16T12:31:40;10.18;;;5.65;;
77158;SDS011;66129;45.890;13.714;2024-02-16T12:34:06;8.52;;;5.50;;
77158;SDS011;66129;45.890;13.714;2024-02-16T12:36:33;10.98;;;6.00;;
77158;SDS011;66129;45.890;13.714;2024-02-16T12:38:59;10.05;;;5.68;;
77158;SDS011;66129;45.890;13.714;2024-02-16T12:41:25;10.13;;;5.95;;
77158;SDS011;66129;45.890;13.714;2024-02-16T12:43:51;12.93;;;6.60;;
77158;SDS011;66129;45.890;13.714;2024-02-16T12:46:16;8.60;;;5.07;;
77158;SDS011;66129;45.890;13.714;2024-02-16T12:48:42;28.40;;;10.25;;
77158;SDS011;66129;45.890;13.714;2024-02-16T12:51:07;15.48;;;8.20;;
77158;SDS011;66129;45.890;13.714;2024-02-16T12:53:33;19.08;;;9.60;;
77158;SDS011;66129;45.890;13.714;2024-02-16T12:56:06;11.25;;;6.57;;
77158;SDS011;66129;45.890;13.714;2024-02-16T12:58:33;12.55;;;6.07;;
77158;SDS011;66129;45.890;13.714;2024-02-16T13:00:59;11.40;;;5.65;;
77158;SDS011;66129;45.890;13.714;2024-02-16T13:03:25;10.48;;;6.03;;
77158;SDS011;66129;45.890;13.714;2024-02-16T13:05:50;10.80;;;5.80;;
77158;SDS011;66129;45.890;13.714;2024-02-16T13:08:16;13.18;;;6.53;;
77158;SDS011;66129;45.890;13.714;2024-02-16T13:10:42;12.00;;;6.85;;
77158;SDS011;66129;45.890;13.714;2024-02-16T13:13:07;12.65;;;6.15;;
77158;SDS011;66129;45.890;13.714;2024-02-16T13:15:33;10.05;;;5.28;;
77158;SDS011;66129;45.890;13.714;2024-02-16T13:17:58;11.77;;;5.80;;
77158;SDS011;66129;45.890;13.714;2024-02-16T13:20:24;12.23;;;6.45;;
77158;SDS011;66129;45.890;13.714;2024-02-16T13:22:50;9.57;;;5.35;;
77158;SDS011;66129;45.890;13.714;2024-02-16T13:25:15;9.65;;;5.60;;
77158;SDS011;66129;45.890;13.714;2024-02-16T13:27:41;14.73;;;6.25;;
77158;SDS011;66129;45.890;13.714;2024-02-16T13:30:07;11.48;;;5.63;;
77158;SDS011;66129;45.890;13.714;2024-02-16T13:32:33;11.88;;;6.00;;
77158;SDS011;66129;45.890;13.714;2024-02-16T13:35:01;10.20;;;5.55;;
77158;SDS011;66129;45.890;13.714;2024-02-16T13:37:28;10.68;;;6.50;;
77158;SDS011;66129;45.890;13.714;2024-02-16T13:39:53;11.48;;;6.00;;
77158;SDS011;66129;45.890;13.714;2024-02-16T13:42:19;8.05;;;5.30;;
77158;SDS011;66129;45.890;13.714;2024-02-16T13:44:44;11.07;;;5.43;;
77158;SDS011;66129;45.890;13.714;2024-02-16T13:47:10;15.00;;;5.88;;
77158;SDS011;66129;45.890;13.714;2024-02-16T13:49:36;11.48;;;6.10;;
77158;SDS011;66129;45.890;13.714;2024-02-16T13:52:01;8.80;;;4.28;;
77158;SDS011;66129;45.890;13.714;2024-02-16T13:54:28;11.32;;;6.05;;
77158;SDS011;66129;45.890;13.714;2024-02-16T13:56:53;12.00;;;5.40;;
77158;SDS011;66129;45.890;13.714;2024-02-16T13:59:19;11.73;;;5.30;;
77158;SDS011;66129;45.890;13.714;2024-02-16T14:01:44;9.25;;;5.07;;
77158;SDS011;66129;45.890;13.714;2024-02-16T14:04:11;13.93;;;5.85;;
77158;SDS011;66129;45.890;13.714;2024-02-16T14:06:38;13.00;;;6.70;;
77158;SDS011;66129;45.890;13.714;2024-02-16T14:09:03;13.60;;;5.80;;
77158;SDS011;66129;45.890;13.714;2024-02-16T14:11:39;15.13;;;7.45;;
77158;SDS011;66129;45.890;13.714;2024-02-16T14:14:06;19.35;;;8.95;;
77158;SDS011;66129;45.890;13.714;2024-02-16T14:16:32;12.38;;;6.47;;